createdAt,value
2018-08-31T00:00:47.672Z,11.27
2018-08-31T00:05:56.915Z,11.80
2018-08-31T00:11:23.984Z,11.31
2018-08-31T00:16:21.736Z,11.40
2018-08-31T00:21:19.124Z,11.11
2018-08-31T00:26:27.847Z,10.92
2018-08-31T00:33:44.139Z,10.78
2018-08-31T00:38:56.443Z,10.59
2018-08-31T00:45:03.875Z,10.91
2018-08-31T00:50:04.681Z,10.77
2018-08-31T00:55:02.126Z,10.46
2018-08-31T00:59:59.534Z,10.37
2018-08-31T01:04:56.919Z,10.31
2018-08-31T01:09:54.962Z,10.10
2018-08-31T01:14:52.995Z,10.05
2018-08-31T01:19:53.267Z,9.97
2018-08-31T01:24:50.807Z,10.12
2018-08-31T01:29:48.183Z,10.41
2018-08-31T01:34:45.562Z,10.30
2018-08-31T01:39:42.978Z,9.98
2018-08-31T01:44:40.643Z,9.80
2018-08-31T01:49:41.929Z,9.79
2018-08-31T01:54:39.346Z,9.71
2018-08-31T01:59:36.735Z,9.81
2018-08-31T02:04:34.922Z,9.62
2018-08-31T02:09:32.300Z,9.62
2018-08-31T02:14:29.671Z,9.59
2018-08-31T02:19:31.777Z,9.51
2018-08-31T02:24:29.414Z,9.46
2018-08-31T02:29:26.824Z,9.56
2018-08-31T02:34:25.103Z,9.69
2018-08-31T02:39:22.552Z,9.68
2018-08-31T02:44:19.887Z,9.60
2018-08-31T02:49:26.245Z,9.50
2018-08-31T02:54:23.763Z,9.46
2018-08-31T02:59:21.131Z,9.61
2018-08-31T03:04:18.827Z,9.38
2018-08-31T03:09:16.195Z,9.39
2018-08-31T03:14:13.587Z,9.27
2018-08-31T03:19:12.547Z,9.53
2018-08-31T03:24:10.022Z,9.44
2018-08-31T03:29:07.767Z,9.39
2018-08-31T03:34:05.778Z,9.39
2018-08-31T03:39:04.155Z,9.28
2018-08-31T03:44:01.530Z,9.32
2018-08-31T03:48:59.011Z,9.30
2018-08-31T03:53:56.495Z,9.56
2018-08-31T03:58:53.894Z,9.72
2018-08-31T04:03:52.279Z,9.70
2018-08-31T04:08:49.687Z,9.65
2018-08-31T04:13:47.071Z,9.50
2018-08-31T04:18:44.527Z,9.66
2018-08-31T04:23:41.963Z,9.71
2018-08-31T04:28:39.362Z,9.72
2018-08-31T04:33:36.778Z,9.60
2018-08-31T04:38:34.174Z,9.51
2018-08-31T04:43:31.572Z,9.45
2018-08-31T04:48:29.947Z,9.46
2018-08-31T04:53:27.382Z,9.48
2018-08-31T04:58:24.790Z,9.61
2018-08-31T05:03:22.786Z,9.69
2018-08-31T05:08:21.036Z,9.73
2018-08-31T05:13:19.538Z,9.94
2018-08-31T05:18:17.675Z,10.10
2018-08-31T05:23:20.031Z,10.23
2018-08-31T05:28:17.611Z,10.44
2018-08-31T05:33:15.031Z,10.66
2018-08-31T05:38:12.459Z,10.89
2018-08-31T05:43:09.837Z,11.28
2018-08-31T05:48:07.233Z,11.25
2018-08-31T05:53:04.650Z,11.02
2018-08-31T05:58:02.045Z,11.08
2018-08-31T06:02:59.455Z,11.19
2018-08-31T06:07:56.901Z,11.66
2018-08-31T06:12:55.071Z,11.78
2018-08-31T06:17:53.106Z,11.55
2018-08-31T06:22:50.540Z,11.71
2018-08-31T06:27:47.963Z,11.87
2018-08-31T06:32:45.988Z,11.85
2018-08-31T06:37:43.911Z,11.88
2018-08-31T06:42:41.317Z,11.96
2018-08-31T06:47:38.819Z,12.13
2018-08-31T06:52:36.274Z,12.08
2018-08-31T06:57:33.700Z,12.08
2018-08-31T07:02:31.107Z,12.39
2018-08-31T07:07:29.168Z,12.45
2018-08-31T07:12:26.856Z,12.62
2018-08-31T07:17:25.146Z,12.74
2018-08-31T07:22:22.547Z,12.88
2018-08-31T07:27:20.278Z,12.90
2018-08-31T07:32:17.830Z,12.96
2018-08-31T07:37:15.469Z,13.01
2018-08-31T07:42:12.894Z,13.07
2018-08-31T07:47:10.571Z,13.37
2018-08-31T07:52:07.978Z,13.21
2018-08-31T07:57:05.891Z,13.60
2018-08-31T08:02:03.380Z,13.96
2018-08-31T08:07:00.843Z,14.22
2018-08-31T08:11:58.459Z,14.31
2018-08-31T08:16:55.860Z,14.17
2018-08-31T08:21:53.324Z,14.40
2018-08-31T08:26:50.799Z,14.77
2018-08-31T08:31:48.200Z,14.24
2018-08-31T08:36:45.847Z,14.13
2018-08-31T08:41:46.193Z,14.82
2018-08-31T08:46:47.338Z,14.88
2018-08-31T08:51:52.951Z,15.55
2018-08-31T08:56:54.008Z,14.80
2018-08-31T09:01:51.519Z,15.79
2018-08-31T09:06:51.158Z,15.10
2018-08-31T09:11:50.735Z,15.00
2018-08-31T09:16:48.313Z,15.10
2018-08-31T09:21:47.163Z,16.44
2018-08-31T09:26:44.922Z,15.87
2018-08-31T09:31:44.919Z,15.94
2018-08-31T09:36:45.103Z,16.42
2018-08-31T09:41:42.487Z,15.60
2018-08-31T09:46:39.896Z,15.65
2018-08-31T09:51:37.575Z,16.03
2018-08-31T09:56:35.995Z,15.89
2018-08-31T10:01:34.678Z,16.45
2018-08-31T10:06:33.129Z,16.14
2018-08-31T10:11:30.544Z,16.09
2018-08-31T10:16:27.947Z,16.31
2018-08-31T10:21:25.463Z,16.61
2018-08-31T10:26:23.869Z,16.57
2018-08-31T10:31:21.355Z,16.75
2018-08-31T10:36:18.877Z,16.97
2018-08-31T10:41:16.278Z,16.56
2018-08-31T10:46:13.689Z,16.62
2018-08-31T10:51:11.132Z,17.01
2018-08-31T10:56:11.547Z,17.14
2018-08-31T11:01:14.597Z,17.25
2018-08-31T11:06:17.506Z,16.98
2018-08-31T11:11:17.784Z,16.96
2018-08-31T11:16:16.183Z,17.09
2018-08-31T11:21:13.639Z,17.18
2018-08-31T11:26:11.051Z,17.36
2018-08-31T11:31:08.459Z,17.19
2018-08-31T11:36:05.906Z,18.05
2018-08-31T11:41:03.321Z,17.99
2018-08-31T11:46:00.738Z,17.89
2018-08-31T11:50:59.188Z,18.00
2018-08-31T11:55:57.467Z,18.03
2018-08-31T12:00:54.982Z,18.60
2018-08-31T12:05:52.467Z,17.75
2018-08-31T12:10:50.374Z,18.41
2018-08-31T12:15:47.871Z,17.69
2018-08-31T12:20:47.299Z,17.81
2018-08-31T12:25:45.063Z,18.02
2018-08-31T12:30:42.524Z,18.42
2018-08-31T12:35:40.719Z,18.53
2018-08-31T12:40:39.246Z,18.62
2018-08-31T12:45:37.388Z,18.08
2018-08-31T12:50:35.443Z,17.80
2018-08-31T12:55:33.826Z,18.09
2018-08-31T13:00:32.587Z,18.19
2018-08-31T13:05:30.293Z,18.03
2018-08-31T13:10:27.728Z,18.31
2018-08-31T13:15:25.190Z,18.24
2018-08-31T13:20:23.619Z,18.18
2018-08-31T13:25:21.050Z,18.18
2018-08-31T13:30:18.545Z,18.82
2018-08-31T13:35:15.960Z,19.01
2018-08-31T13:40:13.363Z,18.89
2018-08-31T13:45:10.782Z,19.42
2018-08-31T13:50:09.048Z,18.71
2018-08-31T13:55:06.636Z,19.48
2018-08-31T14:00:04.481Z,19.17
2018-08-31T14:05:01.963Z,18.87
2018-08-31T14:09:59.408Z,18.73
2018-08-31T14:14:57.155Z,19.29
2018-08-31T14:19:55.752Z,18.91
2018-08-31T14:24:53.266Z,18.89
2018-08-31T14:29:51.629Z,18.53
2018-08-31T14:34:49.996Z,18.71
2018-08-31T14:39:47.696Z,18.52
2018-08-31T14:44:45.122Z,18.56
2018-08-31T14:49:44.485Z,18.52
2018-08-31T14:54:41.991Z,18.74
2018-08-31T14:59:39.410Z,18.90
2018-08-31T15:04:36.833Z,19.09
2018-08-31T15:09:34.227Z,19.09
2018-08-31T15:14:31.656Z,19.04
2018-08-31T15:19:33.513Z,18.93
2018-08-31T15:24:31.013Z,18.88
2018-08-31T15:29:28.438Z,19.56
2018-08-31T15:34:25.847Z,19.58
2018-08-31T15:39:23.348Z,19.33
2018-08-31T15:44:20.850Z,19.83
2018-08-31T15:49:25.362Z,19.27
2018-08-31T15:54:22.904Z,19.16
2018-08-31T15:59:20.316Z,19.12
2018-08-31T16:04:17.752Z,18.93
2018-08-31T16:09:15.181Z,18.80
2018-08-31T16:14:12.594Z,18.60
2018-08-31T16:19:10.865Z,18.82
2018-08-31T16:24:08.283Z,18.94
2018-08-31T16:29:12.224Z,18.99
2018-08-31T16:34:09.775Z,19.05
2018-08-31T16:39:08.152Z,19.49
2018-08-31T16:44:06.165Z,20.07
2018-08-31T16:49:10.083Z,19.40
2018-08-31T16:54:07.507Z,19.19
2018-08-31T16:59:05.252Z,18.84
2018-08-31T17:04:02.720Z,18.73
2018-08-31T17:09:00.144Z,18.35
2018-08-31T17:13:57.574Z,18.25
2018-08-31T17:18:55.439Z,18.11
2018-08-31T17:23:52.901Z,17.94
2018-08-31T17:28:55.972Z,18.09
2018-08-31T17:33:59.051Z,18.12
2018-08-31T17:38:56.458Z,17.90
2018-08-31T17:43:53.887Z,17.88
2018-08-31T17:48:52.399Z,17.70
2018-08-31T17:53:49.822Z,17.63
2018-08-31T17:58:50.536Z,17.49
2018-08-31T18:03:55.201Z,17.26
2018-08-31T18:08:59.830Z,16.99
2018-08-31T18:13:59.894Z,16.82
2018-08-31T18:19:02.759Z,16.67
2018-08-31T18:24:03.061Z,16.46
2018-08-31T18:29:01.715Z,16.33
2018-08-31T18:34:00.109Z,16.25
2018-08-31T18:38:58.187Z,16.19
2018-08-31T18:43:55.599Z,16.16
2018-08-31T18:48:53.011Z,16.08
2018-08-31T18:53:50.447Z,15.62
2018-08-31T18:58:48.668Z,15.72
2018-08-31T19:03:47.006Z,15.87
2018-08-31T19:08:45.133Z,15.79
2018-08-31T19:13:43.332Z,15.71
2018-08-31T19:18:40.822Z,15.28
2018-08-31T19:23:38.947Z,15.55
2018-08-31T19:28:37.580Z,15.52
2018-08-31T19:33:35.706Z,15.31
2018-08-31T19:38:33.640Z,14.78
2018-08-31T19:43:31.969Z,14.46
2018-08-31T19:48:30.423Z,14.49
2018-08-31T19:53:28.629Z,14.17
2018-08-31T19:58:27.373Z,14.64
2018-08-31T20:03:25.527Z,14.93
2018-08-31T20:08:23.495Z,14.60
2018-08-31T20:13:21.651Z,14.13
2018-08-31T20:18:19.821Z,14.08
2018-08-31T20:23:18.403Z,14.88
2018-08-31T20:28:16.559Z,14.77
2018-08-31T20:33:14.381Z,14.63
2018-08-31T20:38:11.822Z,14.58
2018-08-31T20:43:09.484Z,14.83
2018-08-31T20:48:08.031Z,14.57
2018-08-31T20:53:05.583Z,15.02
2018-08-31T20:58:03.192Z,14.97
2018-08-31T21:03:00.583Z,15.25
2018-08-31T21:07:57.999Z,15.02
2018-08-31T21:12:56.019Z,15.16
2018-08-31T21:17:53.830Z,15.29
2018-08-31T21:22:51.711Z,15.25
2018-08-31T21:27:49.606Z,15.27
2018-08-31T21:32:47.022Z,15.40
2018-08-31T21:37:44.435Z,15.26
2018-08-31T21:42:42.314Z,15.27
2018-08-31T21:47:39.751Z,15.02
2018-08-31T21:52:37.260Z,15.27
2018-08-31T21:57:34.689Z,15.26
2018-08-31T22:02:32.095Z,15.24
2018-08-31T22:07:29.512Z,15.30
2018-08-31T22:12:26.930Z,15.08
2018-08-31T22:17:24.792Z,15.25
2018-08-31T22:22:22.186Z,15.33
2018-08-31T22:27:19.583Z,15.21
2018-08-31T22:32:16.968Z,15.22
2018-08-31T22:37:14.479Z,15.13
2018-08-31T22:42:11.871Z,15.18
2018-08-31T22:47:09.263Z,15.27
2018-08-31T22:52:06.780Z,15.15
2018-08-31T22:57:04.149Z,15.07
2018-08-31T23:02:01.551Z,15.00
2018-08-31T23:06:58.978Z,15.06
2018-08-31T23:11:56.391Z,15.12
2018-08-31T23:16:53.813Z,15.17
2018-08-31T23:21:51.210Z,15.07
2018-08-31T23:26:48.622Z,15.16
2018-08-31T23:31:46.015Z,15.06
2018-08-31T23:36:43.448Z,15.13
2018-08-31T23:41:40.846Z,15.04
2018-08-31T23:46:38.254Z,14.91
2018-08-31T23:51:35.664Z,14.90
2018-08-31T23:56:33.059Z,14.82
